createdAt,value
2019-05-17T00:00:02.142Z,11.07
2019-05-17T00:02:38.500Z,10.10
2019-05-17T00:05:12.978Z,10.37
2019-05-17T00:07:49.345Z,9.63
2019-05-17T00:10:22.264Z,10.47
2019-05-17T00:12:56.740Z,9.27
2019-05-17T00:15:29.862Z,8.57
2019-05-17T00:18:06.463Z,9.10
2019-05-17T00:20:39.640Z,10.63
2019-05-17T00:23:14.608Z,8.63
2019-05-17T00:25:48.938Z,9.10
2019-05-17T00:28:23.288Z,9.90
2019-05-17T00:30:57.611Z,10.20
2019-05-17T00:33:32.552Z,11.00
2019-05-17T00:36:07.167Z,10.60
2019-05-17T00:38:48.290Z,9.33
2019-05-17T00:41:18.230Z,10.27
2019-05-17T00:43:53.448Z,9.47
2019-05-17T00:46:27.636Z,9.03
2019-05-17T00:49:02.223Z,8.63
2019-05-17T00:51:37.140Z,8.73
2019-05-17T00:54:13.134Z,8.40
2019-05-17T00:56:48.700Z,8.80
2019-05-17T00:59:22.114Z,8.77
2019-05-17T01:01:58.498Z,8.60
2019-05-17T01:04:36.860Z,7.93
2019-05-17T01:07:14.475Z,8.07
2019-05-17T01:09:56.575Z,8.17
2019-05-17T01:12:40.853Z,7.33
2019-05-17T01:15:16.719Z,6.93
2019-05-17T01:17:51.894Z,7.87
2019-05-17T01:20:27.688Z,8.57
2019-05-17T01:23:02.703Z,7.93
2019-05-17T01:25:37.505Z,7.77
2019-05-17T01:28:11.257Z,7.57
2019-05-17T01:30:46.373Z,7.60
2019-05-17T01:33:20.665Z,26.10
2019-05-17T01:35:57.127Z,13.40
2019-05-17T01:38:31.104Z,13.50
2019-05-17T01:41:06.965Z,7.73
2019-05-17T01:43:40.868Z,8.17
2019-05-17T01:46:14.308Z,7.57
2019-05-17T01:48:48.544Z,7.60
2019-05-17T01:51:23.346Z,7.80
2019-05-17T01:53:58.265Z,7.70
2019-05-17T01:56:32.416Z,7.17
2019-05-17T01:59:06.860Z,8.00
2019-05-17T02:01:43.334Z,7.30
2019-05-17T02:04:18.978Z,6.87
2019-05-17T02:06:53.067Z,7.30
2019-05-17T02:09:37.320Z,7.43
2019-05-17T02:12:03.412Z,8.43
2019-05-17T02:14:37.548Z,8.47
2019-05-17T02:17:11.478Z,8.27
2019-05-17T02:19:46.542Z,7.47
2019-05-17T02:22:22.424Z,7.13
2019-05-17T02:24:56.725Z,7.27
2019-05-17T02:27:38.256Z,8.20
2019-05-17T02:30:07.986Z,7.40
2019-05-17T02:32:44.576Z,6.50
2019-05-17T02:35:22.859Z,7.03
2019-05-17T02:37:55.900Z,6.80
2019-05-17T02:40:33.547Z,6.90
2019-05-17T02:43:07.404Z,9.03
2019-05-17T02:45:43.568Z,7.03
2019-05-17T02:48:22.940Z,6.60
2019-05-17T02:50:55.889Z,7.50
2019-05-17T02:53:33.178Z,7.50
2019-05-17T02:56:05.875Z,7.37
2019-05-17T02:58:43.635Z,7.73
2019-05-17T03:01:17.067Z,8.20
2019-05-17T03:03:52.925Z,13.43
2019-05-17T03:06:27.567Z,7.40
2019-05-17T03:09:03.694Z,13.23
2019-05-17T03:11:38.628Z,9.77
2019-05-17T03:14:14.612Z,8.10
2019-05-17T03:16:53.380Z,6.47
2019-05-17T03:19:32.729Z,6.57
2019-05-17T03:22:12.893Z,9.53
2019-05-17T03:24:45.719Z,6.57
2019-05-17T03:27:23.284Z,7.40
2019-05-17T03:29:57.443Z,7.47
2019-05-17T03:32:36.191Z,7.77
2019-05-17T03:35:08.733Z,7.83
2019-05-17T03:37:44.122Z,7.20
2019-05-17T03:40:58.383Z,7.77
2019-05-17T03:43:09.230Z,8.03
2019-05-17T03:45:45.812Z,6.80
2019-05-17T03:48:25.597Z,7.97
2019-05-17T03:51:02.405Z,8.00
2019-05-17T03:53:37.453Z,7.93
2019-05-17T03:56:14.587Z,8.53
2019-05-17T03:58:52.989Z,7.40
2019-05-17T04:01:25.845Z,11.03
2019-05-17T04:04:02.574Z,11.23
2019-05-17T04:06:35.767Z,8.30
2019-05-17T04:09:13.847Z,11.47
2019-05-17T04:11:46.531Z,7.23
2019-05-17T04:14:33.339Z,8.83
2019-05-17T04:17:12.849Z,9.40
2019-05-17T04:19:47.221Z,8.90
2019-05-17T04:22:23.613Z,7.03
2019-05-17T04:25:38.705Z,6.50
2019-05-17T04:28:13.664Z,17.60
2019-05-17T04:30:52.529Z,10.20
2019-05-17T04:33:28.463Z,10.90
2019-05-17T04:36:03.080Z,10.73
2019-05-17T04:38:53.314Z,10.30
2019-05-17T04:41:50.309Z,8.57
2019-05-17T04:44:23.199Z,10.80
2019-05-17T04:46:58.587Z,10.23
2019-05-17T04:49:33.291Z,8.47
2019-05-17T04:52:13.516Z,7.73
2019-05-17T04:54:49.193Z,7.60
2019-05-17T04:57:23.704Z,10.07
2019-05-17T05:00:34.412Z,10.60
2019-05-17T05:03:12.461Z,13.20
2019-05-17T05:05:53.170Z,9.70
2019-05-17T05:08:28.729Z,10.20
2019-05-17T05:11:06.015Z,16.30
2019-05-17T05:13:42.610Z,15.33
2019-05-17T05:16:36.970Z,10.30
2019-05-17T05:19:23.131Z,11.07
2019-05-17T05:21:57.853Z,14.83
2019-05-17T05:24:42.368Z,10.43
2019-05-17T05:27:19.446Z,11.33
2019-05-17T05:29:53.388Z,8.90
2019-05-17T05:32:27.824Z,9.50
2019-05-17T05:35:03.700Z,14.40
2019-05-17T05:37:37.681Z,13.57
2019-05-17T05:40:15.176Z,15.40
2019-05-17T05:42:51.476Z,12.47
2019-05-17T05:45:25.193Z,11.30
2019-05-17T05:48:04.388Z,9.70
2019-05-17T05:50:38.553Z,11.60
2019-05-17T05:53:13.645Z,14.87
2019-05-17T05:55:52.136Z,11.37
2019-05-17T05:58:33.151Z,8.73
2019-05-17T06:01:13.741Z,13.07
2019-05-17T06:04:16.951Z,14.20
2019-05-17T06:06:52.176Z,13.77
2019-05-17T06:09:38.740Z,11.87
2019-05-17T06:12:23.437Z,14.67
2019-05-17T06:14:59.831Z,14.40
2019-05-17T06:17:34.008Z,13.43
2019-05-17T06:20:41.739Z,7.73
2019-05-17T06:23:13.952Z,8.13
2019-05-17T06:26:17.579Z,13.10
2019-05-17T06:29:19.173Z,16.63
2019-05-17T06:31:38.954Z,11.63
2019-05-17T06:34:12.383Z,10.57
2019-05-17T06:36:46.650Z,11.00
2019-05-17T06:39:23.132Z,9.73
2019-05-17T06:41:58.037Z,9.03
2019-05-17T06:44:32.464Z,8.63
2019-05-17T06:47:06.632Z,11.23
2019-05-17T06:49:42.431Z,9.57
2019-05-17T06:52:16.840Z,8.50
2019-05-17T06:54:57.858Z,8.70
2019-05-17T07:05:22.657Z,8.97
2019-05-17T07:07:55.431Z,8.10
2019-05-17T07:10:30.198Z,9.13
2019-05-17T07:13:07.697Z,10.23
2019-05-17T07:15:47.315Z,7.43
2019-05-17T07:18:19.275Z,8.13
2019-05-17T07:20:50.879Z,9.73
2019-05-17T07:23:23.233Z,9.63
2019-05-17T07:30:22.843Z,10.17
2019-05-17T07:32:57.281Z,7.50
2019-05-17T07:35:43.894Z,9.40
2019-05-17T07:38:19.921Z,9.33
2019-05-17T07:41:10.110Z,7.53
2019-05-17T07:43:44.285Z,7.87
2019-05-17T07:46:40.173Z,8.10
2019-05-17T07:50:29.287Z,8.40
2019-05-17T07:53:02.624Z,7.53
2019-05-17T07:55:36.490Z,8.03
2019-05-17T07:58:10.859Z,10.30
2019-05-17T08:04:45.969Z,11.47
2019-05-17T08:07:20.181Z,11.27
2019-05-17T08:09:54.816Z,8.67
2019-05-17T08:12:27.067Z,10.27
2019-05-17T08:18:49.605Z,12.80
2019-05-17T08:21:33.063Z,11.37
2019-05-17T08:24:20.124Z,8.40
2019-05-17T08:26:53.737Z,9.43
2019-05-17T08:29:29.721Z,10.70
2019-05-17T08:36:02.209Z,6.90
2019-05-17T08:38:34.219Z,10.43
2019-05-17T08:41:13.746Z,7.77
2019-05-17T08:43:47.123Z,7.50
2019-05-17T08:46:24.698Z,10.87
2019-05-17T08:50:11.384Z,13.17
2019-05-17T08:52:52.294Z,8.17
2019-05-17T08:55:56.492Z,8.37
2019-05-17T08:58:35.414Z,7.83
2019-05-17T09:01:41.834Z,7.00
2019-05-17T09:04:15.732Z,9.60
2019-05-17T09:06:51.298Z,10.33
2019-05-17T09:09:23.607Z,7.37
2019-05-17T09:12:21.460Z,7.27
2019-05-17T09:15:43.889Z,7.00
2019-05-17T09:18:29.970Z,8.33
2019-05-17T09:21:11.590Z,7.10
2019-05-17T09:24:16.397Z,6.80
2019-05-17T09:38:20.479Z,8.87
2019-05-17T09:41:24.026Z,14.37
2019-05-17T09:44:26.517Z,10.07
2019-05-17T09:47:12.929Z,8.87
2019-05-17T09:49:54.660Z,9.67
2019-05-17T09:52:40.697Z,7.23
2019-05-17T09:55:19.428Z,8.40
2019-05-17T09:57:53.642Z,8.00
2019-05-17T10:00:46.327Z,7.43
2019-05-17T10:03:36.243Z,9.20
2019-05-17T10:06:43.178Z,8.07
2019-05-17T10:09:19.617Z,7.23
2019-05-17T10:12:20.264Z,7.30
2019-05-17T10:15:00.433Z,7.43
2019-05-17T10:17:41.478Z,6.97
2019-05-17T10:20:21.554Z,7.23
2019-05-17T10:23:42.694Z,7.07
2019-05-17T10:26:15.155Z,8.93
2019-05-17T10:28:48.804Z,8.50
2019-05-17T10:31:23.957Z,10.07
2019-05-17T10:33:58.920Z,8.93
2019-05-17T10:36:32.652Z,9.20
2019-05-17T10:43:11.233Z,9.53
2019-05-17T10:45:46.823Z,9.10
2019-05-17T10:49:16.235Z,8.10
2019-05-17T10:52:15.677Z,9.70
2019-05-17T10:54:59.846Z,13.23
2019-05-17T10:57:34.592Z,9.17
2019-05-17T11:06:44.118Z,14.53
2019-05-17T11:09:20.522Z,12.10
2019-05-17T11:11:55.641Z,9.93
2019-05-17T11:14:30.625Z,8.97
2019-05-17T11:17:13.383Z,8.23
2019-05-17T11:19:46.198Z,11.50
2019-05-17T11:22:20.816Z,8.30
2019-05-17T11:25:01.430Z,8.57
2019-05-17T11:27:59.706Z,7.40
2019-05-17T11:30:34.115Z,9.20
2019-05-17T11:33:08.773Z,9.33
2019-05-17T11:35:44.939Z,8.20
2019-05-17T11:38:32.705Z,8.20
2019-05-17T11:41:19.917Z,8.93
2019-05-17T11:43:42.144Z,10.07
2019-05-17T11:46:15.148Z,8.70
2019-05-17T11:48:48.355Z,9.90
2019-05-17T11:51:27.236Z,9.97
2019-05-17T11:54:01.099Z,11.57
2019-05-17T11:56:36.696Z,12.30
2019-05-17T11:59:10.342Z,11.97
2019-05-17T12:01:52.828Z,13.13
2019-05-17T12:04:34.766Z,11.20
2019-05-17T12:07:18.810Z,9.80
2019-05-17T12:09:55.569Z,12.97
2019-05-17T12:12:48.431Z,11.87
2019-05-17T12:15:44.762Z,11.13
2019-05-17T12:18:22.414Z,12.63
2019-05-17T12:21:04.626Z,11.23
2019-05-17T12:27:14.624Z,11.73
2019-05-17T12:29:50.325Z,11.90
2019-05-17T12:32:38.857Z,12.30
2019-05-17T12:35:18.312Z,10.93
2019-05-17T12:38:49.278Z,11.33
2019-05-17T12:41:39.614Z,11.03
2019-05-17T12:44:19.930Z,11.67
2019-05-17T12:47:15.916Z,12.37
2019-05-17T12:50:21.328Z,12.30
2019-05-17T12:53:42.013Z,10.20
2019-05-17T12:56:24.068Z,12.20
2019-05-17T12:58:59.404Z,8.27
2019-05-17T13:01:55.486Z,12.63
2019-05-17T13:04:52.141Z,12.97
2019-05-17T13:08:10.359Z,11.80
2019-05-17T13:10:47.208Z,9.00
2019-05-17T13:13:34.483Z,9.77
2019-05-17T13:16:31.716Z,12.07
2019-05-17T13:19:07.583Z,11.30
2019-05-17T13:21:47.287Z,12.20
2019-05-17T13:25:08.857Z,10.70
2019-05-17T13:27:52.033Z,16.33
2019-05-17T13:30:42.454Z,14.20
2019-05-17T13:33:29.025Z,12.40
2019-05-17T13:36:23.647Z,13.47
2019-05-17T13:38:57.892Z,11.20
2019-05-17T13:41:33.209Z,11.90
2019-05-17T13:44:05.901Z,10.37
2019-05-17T13:46:39.786Z,13.03
2019-05-17T13:49:20.020Z,8.83
2019-05-17T13:51:55.561Z,12.53
2019-05-17T13:54:29.897Z,11.50
2019-05-17T13:57:13.492Z,13.60
2019-05-17T14:00:07.896Z,12.80
2019-05-17T14:02:42.123Z,10.00
2019-05-17T14:05:17.131Z,7.10
2019-05-17T14:08:02.058Z,7.73
2019-05-17T14:10:40.722Z,10.07
2019-05-17T14:13:16.023Z,8.13
2019-05-17T14:15:52.766Z,9.20
2019-05-17T14:18:27.049Z,8.93
2019-05-17T14:21:03.082Z,10.73
2019-05-17T14:23:44.320Z,15.47
2019-05-17T14:26:24.823Z,8.97
2019-05-17T14:29:11.381Z,21.00
2019-05-17T14:32:06.460Z,11.90
2019-05-17T14:34:53.909Z,12.47
2019-05-17T14:37:33.946Z,13.17
2019-05-17T14:41:04.791Z,8.83
2019-05-17T14:43:18.488Z,8.43
2019-05-17T14:45:52.809Z,9.10
2019-05-17T14:48:37.056Z,9.40
2019-05-17T14:51:43.382Z,9.43
2019-05-17T14:54:36.844Z,9.87
2019-05-17T14:57:38.310Z,9.23
2019-05-17T15:00:32.565Z,12.47
2019-05-17T15:03:15.393Z,7.63
2019-05-17T15:05:50.178Z,8.87
2019-05-17T15:08:52.038Z,9.73
2019-05-17T15:11:26.298Z,10.37
2019-05-17T15:14:00.634Z,9.13
2019-05-17T15:16:37.073Z,10.10
2019-05-17T15:19:21.026Z,8.83
2019-05-17T15:22:56.425Z,8.77
2019-05-17T15:25:38.004Z,8.83
2019-05-17T15:28:13.153Z,9.60
2019-05-17T15:30:53.649Z,10.03
2019-05-17T15:33:27.331Z,10.00
2019-05-17T15:36:01.496Z,10.40
2019-05-17T15:38:35.625Z,7.90
2019-05-17T15:41:35.305Z,5.70
2019-05-17T15:44:42.032Z,5.30
2019-05-17T15:47:16.571Z,5.73
2019-05-17T15:49:50.879Z,5.73
2019-05-17T15:52:55.736Z,5.43
2019-05-17T15:56:00.010Z,5.73
2019-05-17T15:58:39.967Z,5.70
2019-05-17T16:01:15.101Z,5.43
2019-05-17T16:03:51.976Z,5.03
2019-05-17T16:06:27.842Z,5.10
2019-05-17T16:09:01.683Z,5.07
2019-05-17T16:11:48.811Z,5.07
2019-05-17T16:14:23.827Z,4.87
2019-05-17T16:17:21.618Z,4.63
2019-05-17T16:31:43.246Z,5.83
2019-05-17T16:34:22.371Z,5.50
2019-05-17T16:36:55.812Z,5.50
2019-05-17T16:44:17.482Z,4.87
2019-05-17T16:47:17.936Z,4.90
2019-05-17T16:50:13.898Z,7.67
2019-05-17T16:53:05.073Z,5.73
2019-05-17T16:55:40.632Z,5.27
2019-05-17T16:58:30.653Z,5.90
2019-05-17T17:01:05.692Z,5.47
2019-05-17T17:08:00.384Z,7.87
2019-05-17T17:11:07.281Z,7.77
2019-05-17T17:17:54.852Z,6.30
2019-05-17T17:21:04.917Z,8.63
2019-05-17T17:28:29.715Z,6.50
2019-05-17T17:39:35.814Z,6.90
2019-05-17T17:46:01.814Z,6.87
2019-05-17T18:04:17.467Z,7.00
2019-05-17T18:07:26.501Z,8.33
2019-05-17T18:10:02.031Z,6.80
2019-05-17T18:12:36.812Z,6.47
2019-05-17T18:15:12.882Z,7.07
2019-05-17T18:17:46.764Z,7.67
2019-05-17T18:20:20.940Z,11.63
2019-05-17T18:22:55.195Z,20.30
2019-05-17T18:25:28.540Z,8.70
2019-05-17T18:28:02.343Z,8.80
2019-05-17T18:30:36.648Z,8.07
2019-05-17T18:33:23.434Z,12.23
2019-05-17T18:36:56.555Z,18.97
2019-05-17T18:43:06.688Z,17.60
2019-05-17T18:46:01.663Z,21.70
2019-05-17T18:49:02.514Z,21.23
2019-05-17T18:51:42.395Z,18.13
2019-05-17T18:55:02.962Z,12.83
2019-05-17T18:58:11.213Z,16.70
2019-05-17T19:00:45.151Z,14.67
2019-05-17T19:03:54.437Z,13.47
2019-05-17T19:06:28.757Z,13.07
2019-05-17T19:09:22.079Z,11.03
2019-05-17T19:12:03.679Z,9.50
2019-05-17T19:14:43.027Z,8.40
2019-05-17T19:21:00.446Z,17.27
2019-05-17T19:24:13.245Z,9.93
2019-05-17T19:27:37.589Z,13.03
2019-05-17T19:30:13.294Z,20.97
2019-05-17T19:32:46.923Z,17.70
2019-05-17T19:35:20.724Z,16.67
2019-05-17T19:37:55.285Z,21.53
2019-05-17T19:40:29.060Z,17.87
2019-05-17T19:43:04.470Z,20.83
2019-05-17T19:46:05.906Z,24.00
2019-05-17T19:48:39.690Z,20.03
2019-05-17T19:52:03.568Z,22.23
2019-05-17T19:54:38.458Z,23.50
2019-05-17T19:57:12.877Z,20.47
2019-05-17T19:59:47.525Z,21.57
2019-05-17T20:02:21.171Z,19.50
2019-05-17T20:04:54.869Z,19.43
2019-05-17T20:07:36.832Z,16.90
2019-05-17T20:10:04.728Z,16.50
2019-05-17T20:12:40.812Z,15.43
2019-05-17T20:15:17.916Z,17.80
2019-05-17T20:17:50.338Z,17.20
2019-05-17T20:20:24.356Z,18.70
2019-05-17T20:23:24.541Z,17.00
2019-05-17T20:25:58.333Z,16.47
2019-05-17T20:28:32.347Z,16.03
2019-05-17T20:31:05.977Z,16.83
2019-05-17T20:33:48.111Z,16.23
2019-05-17T20:36:22.217Z,16.07
2019-05-17T20:38:55.823Z,15.23
2019-05-17T20:41:37.082Z,21.50
2019-05-17T20:44:11.124Z,14.03
2019-05-17T20:46:46.779Z,15.67
2019-05-17T20:49:20.395Z,18.63
2019-05-17T20:51:54.485Z,14.83
2019-05-17T20:54:28.033Z,16.93
2019-05-17T20:57:09.592Z,16.40
2019-05-17T20:59:43.893Z,14.83
2019-05-17T21:02:17.922Z,16.87
2019-05-17T21:04:51.665Z,14.57
2019-05-17T21:07:29.808Z,15.57
2019-05-17T21:10:03.046Z,17.03
2019-05-17T21:12:37.799Z,14.77
2019-05-17T21:15:12.794Z,16.63
2019-05-17T21:17:46.563Z,17.47
2019-05-17T21:20:21.007Z,17.50
2019-05-17T21:22:55.470Z,13.60
2019-05-17T21:25:29.306Z,15.47
2019-05-17T21:28:03.381Z,14.07
2019-05-17T21:30:38.082Z,13.77
2019-05-17T21:33:14.499Z,13.90
2019-05-17T21:35:55.369Z,14.73
2019-05-17T21:38:29.708Z,13.07
2019-05-17T21:41:03.451Z,13.83
2019-05-17T21:43:41.405Z,13.83
2019-05-17T21:46:15.858Z,13.20
2019-05-17T21:49:10.335Z,14.97
2019-05-17T21:51:47.208Z,13.83
2019-05-17T21:54:24.526Z,14.67
2019-05-17T21:56:58.310Z,13.87
2019-05-17T21:59:32.283Z,12.63
2019-05-17T22:02:05.982Z,12.90
2019-05-17T22:04:39.586Z,14.00
2019-05-17T22:07:12.732Z,14.60
2019-05-17T22:09:46.287Z,16.57
2019-05-17T22:12:19.852Z,16.90
2019-05-17T22:14:53.492Z,13.77
2019-05-17T22:17:30.147Z,14.10
2019-05-17T22:20:04.270Z,14.87
2019-05-17T22:22:37.311Z,14.03
2019-05-17T22:25:11.442Z,14.07
2019-05-17T22:27:44.555Z,13.30
2019-05-17T22:30:18.583Z,11.97
2019-05-17T22:32:52.203Z,12.17
2019-05-17T22:35:28.477Z,11.20
2019-05-17T22:38:06.094Z,13.30
2019-05-17T22:40:40.067Z,11.30
2019-05-17T22:43:20.322Z,13.00
2019-05-17T22:45:53.745Z,12.30
2019-05-17T22:48:34.032Z,13.23
2019-05-17T22:51:08.094Z,11.67
2019-05-17T22:53:47.334Z,13.23
2019-05-17T22:56:25.560Z,12.00
2019-05-17T22:59:02.571Z,11.30
2019-05-17T23:01:40.541Z,11.10
2019-05-17T23:04:14.155Z,11.77
2019-05-17T23:06:48.148Z,10.80
2019-05-17T23:09:22.329Z,11.83
2019-05-17T23:11:56.143Z,12.63
2019-05-17T23:14:30.502Z,12.13
2019-05-17T23:17:04.513Z,10.07
2019-05-17T23:19:40.710Z,10.00
2019-05-17T23:22:14.278Z,11.60
2019-05-17T23:24:48.090Z,10.77
2019-05-17T23:27:28.836Z,9.70
2019-05-17T23:30:02.493Z,10.97
2019-05-17T23:32:36.628Z,10.57
2019-05-17T23:35:09.797Z,12.83
2019-05-17T23:37:44.158Z,13.20
2019-05-17T23:40:17.410Z,15.37
2019-05-17T23:42:52.079Z,17.53
2019-05-17T23:45:26.132Z,11.27
2019-05-17T23:48:02.762Z,12.47
2019-05-17T23:50:36.465Z,10.57
2019-05-17T23:53:09.335Z,9.23
2019-05-17T23:55:42.189Z,12.47
2019-05-17T23:58:15.033Z,11.87
